Time;durP1;ratioP1;P1;durP2;ratioP2;P2;SDS_P1;SDS_P2;PMS_P1;PMS_P2;Temp;Humidity;BMP_temperature;BMP_pressure;BME280_temperature;BME280_humidity;BME280_pressure;Samples;Min_cycle;Max_cycle;Signal;HPM_P1;HPM_P2
2022/07/13 00:01:10;;;;;;;8.80;5.93;;;;;;;;;;5018661;28;20029;-73
2022/07/13 00:03:36;;;;;;;7.47;5.85;;;;;;;;;;5018176;28;20043;-73
2022/07/13 00:06:01;;;;;;;6.95;5.75;;;;;;;;;;5020541;28;20112;-74
2022/07/13 00:08:27;;;;;;;7.32;5.90;;;;;;;;;;5020071;28;20029;-73
2022/07/13 00:10:52;;;;;;;7.75;6.35;;;;;;;;;;5027990;28;20075;-73
2022/07/13 00:13:18;;;;;;;8.60;6.25;;;;;;;;;;5019032;28;20021;-73
2022/07/13 00:15:43;;;;;;;9.48;6.80;;;;;;;;;;5020661;28;20368;-74
2022/07/13 00:18:08;;;;;;;10.88;7.57;;;;;;;;;;5011073;28;20080;-73
2022/07/13 00:20:34;;;;;;;10.52;6.97;;;;;;;;;;5018711;28;20029;-74
2022/07/13 00:22:59;;;;;;;8.90;7.45;;;;;;;;;;5027747;28;20021;-74
2022/07/13 00:25:25;;;;;;;8.35;6.85;;;;;;;;;;5020842;28;20444;-74
2022/07/13 00:27:50;;;;;;;8.35;7.10;;;;;;;;;;5023913;28;20144;-73
2022/07/13 00:30:15;;;;;;;7.93;6.70;;;;;;;;;;5014064;28;20029;-73
2022/07/13 00:32:41;;;;;;;8.20;6.65;;;;;;;;;;5020757;28;21076;-73
2022/07/13 00:35:06;;;;;;;8.70;7.43;;;;;;;;;;5015571;28;20037;-75
2022/07/13 00:37:32;;;;;;;10.43;7.20;;;;;;;;;;5023058;28;20052;-74
2022/07/13 00:39:57;;;;;;;8.05;6.68;;;;;;;;;;5018181;28;20087;-73
2022/07/13 00:42:22;;;;;;;10.52;7.30;;;;;;;;;;5017550;28;20083;-74
2022/07/13 00:44:48;;;;;;;10.32;7.13;;;;;;;;;;5019072;28;20025;-74
2022/07/13 00:47:14;;;;;;;9.43;7.05;;;;;;;;;;5022289;28;20026;-74
2022/07/13 00:49:39;;;;;;;9.35;7.05;;;;;;;;;;5021071;28;20032;-74
2022/07/13 00:52:05;;;;;;;9.07;7.13;;;;;;;;;;5020688;28;20071;-74
2022/07/13 00:54:31;;;;;;;8.68;7.38;;;;;;;;;;5018247;28;20017;-73
2022/07/13 00:57:00;;;;;;;9.68;7.55;;;;;;;;;;5023083;28;20056;-74
2022/07/13 00:59:26;;;;;;;10.38;7.80;;;;;;;;;;5018360;28;20030;-74
2022/07/13 01:01:52;;;;;;;9.77;8.07;;;;;;;;;;5020940;28;20024;-74
2022/07/13 01:04:20;;;;;;;12.93;9.25;;;;;;;;;;5019884;28;20029;-73
2022/07/13 01:06:45;;;;;;;10.30;8.20;;;;;;;;;;5020808;28;20065;-73
2022/07/13 01:09:11;;;;;;;9.38;7.82;;;;;;;;;;5021281;28;20433;-73
2022/07/13 01:11:39;;;;;;;11.68;8.85;;;;;;;;;;5018833;28;20585;-74
2022/07/13 01:14:04;;;;;;;10.07;8.27;;;;;;;;;;5017809;28;21539;-74
2022/07/13 01:16:30;;;;;;;9.40;8.02;;;;;;;;;;5019343;28;20022;-74
2022/07/13 01:18:56;;;;;;;9.25;7.40;;;;;;;;;;5020365;28;20034;-74
2022/07/13 01:21:21;;;;;;;9.75;7.22;;;;;;;;;;5019746;28;20159;-74
2022/07/13 01:23:47;;;;;;;9.70;7.35;;;;;;;;;;5017954;28;20034;-74
2022/07/13 01:26:13;;;;;;;9.93;7.72;;;;;;;;;;5021732;28;20091;-74
2022/07/13 01:28:38;;;;;;;9.73;7.82;;;;;;;;;;5019063;28;20117;-74
2022/07/13 01:31:04;;;;;;;10.45;8.30;;;;;;;;;;5019366;28;20104;-74
2022/07/13 01:33:29;;;;;;;9.98;7.97;;;;;;;;;;5013659;28;20083;-74
2022/07/13 01:35:58;;;;;;;9.80;7.50;;;;;;;;;;5017473;28;20021;-74
2022/07/13 01:38:24;;;;;;;12.35;9.18;;;;;;;;;;5017347;28;20036;-73
2022/07/13 01:40:49;;;;;;;13.15;8.73;;;;;;;;;;5021250;28;20038;-74
2022/07/13 01:43:17;;;;;;;13.05;8.02;;;;;;;;;;5020873;28;20492;-74
2022/07/13 01:45:44;;;;;;;10.30;8.43;;;;;;;;;;5018315;28;20044;-74
2022/07/13 01:48:10;;;;;;;12.15;9.25;;;;;;;;;;5020381;28;20479;-73
2022/07/13 01:50:35;;;;;;;10.25;8.20;;;;;;;;;;5021900;28;20014;-73
2022/07/13 01:53:00;;;;;;;9.80;7.90;;;;;;;;;;5015917;28;20037;-73
2022/07/13 01:55:26;;;;;;;10.77;8.35;;;;;;;;;;5020302;28;20456;-74
2022/07/13 01:57:59;;;;;;;11.75;8.73;;;;;;;;;;5020618;28;20389;-74
2022/07/13 02:00:25;;;;;;;10.20;7.55;;;;;;;;;;5015185;28;20049;-74
2022/07/13 02:02:50;;;;;;;10.27;8.07;;;;;;;;;;5016820;28;20486;-74
2022/07/13 02:05:17;;;;;;;11.13;8.13;;;;;;;;;;5024354;28;20433;-74
2022/07/13 02:07:42;;;;;;;10.73;8.57;;;;;;;;;;5022331;28;20041;-74
2022/07/13 02:10:10;;;;;;;10.15;7.57;;;;;;;;;;5022932;28;20111;-73
2022/07/13 02:12:35;;;;;;;9.00;7.35;;;;;;;;;;5021244;28;20033;-74
2022/07/13 02:15:01;;;;;;;11.15;7.93;;;;;;;;;;5019851;28;20389;-73
2022/07/13 02:17:27;;;;;;;10.75;7.35;;;;;;;;;;5027709;28;20120;-73
2022/07/13 02:19:52;;;;;;;13.63;8.48;;;;;;;;;;5023932;28;20556;-73
2022/07/13 02:22:17;;;;;;;9.43;6.93;;;;;;;;;;5024903;28;20025;-74
2022/07/13 02:24:44;;;;;;;9.38;7.38;;;;;;;;;;5026934;28;20485;-73
2022/07/13 02:27:09;;;;;;;10.77;7.43;;;;;;;;;;5016690;28;20033;-73
2022/07/13 02:29:34;;;;;;;9.68;8.07;;;;;;;;;;5026661;28;20049;-74
2022/07/13 02:32:00;;;;;;;10.07;8.48;;;;;;;;;;5021659;28;20045;-73
2022/07/13 02:34:27;;;;;;;11.20;7.85;;;;;;;;;;5023604;28;20034;-73
2022/07/13 02:36:56;;;;;;;9.75;7.90;;;;;;;;;;5021347;28;20068;-73
2022/07/13 02:39:22;;;;;;;10.13;8.25;;;;;;;;;;5021953;28;20079;-73
2022/07/13 02:41:49;;;;;;;9.88;7.72;;;;;;;;;;5024392;28;20037;-73
2022/07/13 02:44:15;;;;;;;10.85;8.02;;;;;;;;;;5024025;28;20021;-74
2022/07/13 02:46:40;;;;;;;11.60;8.32;;;;;;;;;;5022299;28;20041;-74
2022/07/13 02:49:06;;;;;;;10.13;7.75;;;;;;;;;;5026789;28;20022;-74
2022/07/13 02:51:31;;;;;;;10.27;8.00;;;;;;;;;;5026306;28;20025;-73
2022/07/13 02:53:56;;;;;;;9.38;7.93;;;;;;;;;;5025905;28;20021;-74
2022/07/13 02:56:22;;;;;;;10.00;8.25;;;;;;;;;;5017527;28;20025;-73
2022/07/13 02:58:47;;;;;;;9.20;7.38;;;;;;;;;;5023114;28;20121;-74
2022/07/13 03:01:12;;;;;;;10.38;8.43;;;;;;;;;;5025256;28;20512;-73
2022/07/13 03:03:38;;;;;;;9.80;7.53;;;;;;;;;;5025732;28;20029;-74
2022/07/13 03:06:04;;;;;;;10.13;8.13;;;;;;;;;;5022921;28;20501;-74
2022/07/13 03:08:29;;;;;;;12.23;7.90;;;;;;;;;;5025595;28;20052;-74
2022/07/13 03:10:55;;;;;;;10.20;7.55;;;;;;;;;;5017234;28;20096;-72
2022/07/13 03:13:20;;;;;;;11.65;8.07;;;;;;;;;;5021191;28;20559;-73
2022/07/13 03:15:45;;;;;;;9.43;6.75;;;;;;;;;;5021535;28;20045;-74
2022/07/13 03:18:11;;;;;;;10.43;7.18;;;;;;;;;;5020481;28;20606;-72
2022/07/13 03:20:36;;;;;;;9.43;6.88;;;;;;;;;;5022173;28;20560;-73
2022/07/13 03:23:01;;;;;;;9.60;6.88;;;;;;;;;;5019253;28;20041;-74
2022/07/13 03:25:27;;;;;;;11.35;7.53;;;;;;;;;;5019952;28;20052;-74
2022/07/13 03:27:52;;;;;;;10.02;7.40;;;;;;;;;;5017552;28;20140;-74
2022/07/13 03:30:18;;;;;;;10.25;8.10;;;;;;;;;;5015911;28;20026;-73
2022/07/13 03:32:43;;;;;;;8.80;6.70;;;;;;;;;;5022929;28;20107;-73
2022/07/13 03:35:10;;;;;;;8.75;6.90;;;;;;;;;;5022626;28;20033;-74
2022/07/13 03:37:35;;;;;;;8.32;6.40;;;;;;;;;;5018746;28;20080;-72
2022/07/13 03:40:01;;;;;;;7.85;5.72;;;;;;;;;;5021303;28;20033;-74
2022/07/13 03:42:26;;;;;;;9.23;6.63;;;;;;;;;;5016975;28;20944;-74
2022/07/13 03:44:52;;;;;;;8.02;6.47;;;;;;;;;;5021928;28;20117;-74
2022/07/13 03:47:17;;;;;;;7.55;6.40;;;;;;;;;;5023155;28;20109;-74
2022/07/13 03:49:43;;;;;;;9.52;6.47;;;;;;;;;;5020950;28;20079;-74
2022/07/13 03:52:08;;;;;;;8.07;6.07;;;;;;;;;;5021748;28;20180;-74
2022/07/13 03:54:34;;;;;;;8.40;5.88;;;;;;;;;;5021385;28;20520;-73
2022/07/13 03:56:59;;;;;;;9.35;6.57;;;;;;;;;;5023055;28;20049;-73
2022/07/13 03:59:24;;;;;;;7.68;5.70;;;;;;;;;;5020917;28;20026;-74
2022/07/13 04:01:50;;;;;;;7.03;5.70;;;;;;;;;;5020980;28;20022;-74
2022/07/13 04:04:15;;;;;;;7.60;5.18;;;;;;;;;;5021657;28;20049;-74
2022/07/13 04:06:40;;;;;;;8.55;6.20;;;;;;;;;;5020639;28;20032;-74
2022/07/13 04:09:06;;;;;;;9.45;5.82;;;;;;;;;;5024512;28;20033;-72
2022/07/13 04:11:31;;;;;;;8.13;5.78;;;;;;;;;;5022932;28;20064;-74
2022/07/13 04:13:57;;;;;;;7.00;5.28;;;;;;;;;;5021178;28;20037;-74
2022/07/13 04:16:22;;;;;;;8.35;5.63;;;;;;;;;;5019971;28;20021;-73
2022/07/13 04:18:47;;;;;;;9.00;4.93;;;;;;;;;;5022889;28;20037;-73
2022/07/13 04:21:14;;;;;;;7.32;5.45;;;;;;;;;;5015963;28;20053;-74
2022/07/13 04:23:39;;;;;;;10.18;5.20;;;;;;;;;;5020799;28;20025;-74
2022/07/13 04:26:05;;;;;;;7.38;5.22;;;;;;;;;;5018111;28;20068;-73
2022/07/13 04:28:31;;;;;;;7.68;4.88;;;;;;;;;;5022035;28;20025;-74
2022/07/13 04:30:56;;;;;;;6.90;4.50;;;;;;;;;;5023152;28;20049;-74
2022/07/13 04:33:22;;;;;;;5.05;4.00;;;;;;;;;;5020356;28;20051;-74
2022/07/13 04:35:47;;;;;;;5.72;4.50;;;;;;;;;;5022061;28;20025;-74
2022/07/13 04:38:13;;;;;;;5.68;4.45;;;;;;;;;;5022672;28;20112;-74
2022/07/13 04:40:39;;;;;;;5.97;4.15;;;;;;;;;;5027709;28;20036;-73
2022/07/13 04:43:04;;;;;;;6.93;4.38;;;;;;;;;;5021246;28;20469;-74
2022/07/13 04:45:32;;;;;;;6.63;4.32;;;;;;;;;;5020751;28;20049;-74
2022/07/13 04:47:57;;;;;;;4.75;3.58;;;;;;;;;;5025372;28;20029;-73
2022/07/13 04:50:22;;;;;;;5.82;3.80;;;;;;;;;;5023053;28;20525;-73
2022/07/13 04:52:48;;;;;;;5.32;3.88;;;;;;;;;;5025234;28;20029;-74
2022/07/13 04:55:13;;;;;;;5.38;3.92;;;;;;;;;;5015443;28;20029;-73
2022/07/13 04:57:39;;;;;;;5.85;4.10;;;;;;;;;;5024545;28;20029;-73
2022/07/13 05:00:07;;;;;;;5.50;3.85;;;;;;;;;;5014559;28;20028;-74
2022/07/13 05:02:33;;;;;;;4.78;3.25;;;;;;;;;;5011871;28;20024;-74
2022/07/13 05:04:58;;;;;;;5.72;3.40;;;;;;;;;;5019598;28;20666;-74
2022/07/13 05:07:23;;;;;;;4.45;3.10;;;;;;;;;;5020095;28;20029;-73
2022/07/13 05:09:49;;;;;;;4.50;3.38;;;;;;;;;;5020599;28;20098;-74
2022/07/13 05:12:14;;;;;;;4.70;3.35;;;;;;;;;;5015875;28;20032;-74
2022/07/13 05:14:39;;;;;;;5.28;2.88;;;;;;;;;;5015796;28;20048;-73
2022/07/13 05:17:05;;;;;;;4.05;2.88;;;;;;;;;;5012450;28;20036;-74
2022/07/13 05:19:30;;;;;;;4.35;3.13;;;;;;;;;;5013704;28;21165;-73
2022/07/13 05:21:55;;;;;;;6.45;3.72;;;;;;;;;;5014560;28;20476;-73
2022/07/13 05:24:21;;;;;;;5.43;3.50;;;;;;;;;;5019731;28;20030;-74
2022/07/13 05:26:46;;;;;;;5.32;3.40;;;;;;;;;;5017462;28;20037;-74
2022/07/13 05:29:11;;;;;;;5.93;3.42;;;;;;;;;;5021542;28;20068;-74
2022/07/13 05:31:37;;;;;;;5.22;3.00;;;;;;;;;;5019854;28;20021;-73
2022/07/13 05:34:02;;;;;;;5.50;3.58;;;;;;;;;;5024141;28;20025;-74
2022/07/13 05:36:28;;;;;;;4.68;2.90;;;;;;;;;;5020581;28;20104;-72
2022/07/13 05:38:53;;;;;;;4.35;3.00;;;;;;;;;;5018381;28;20026;-74
2022/07/13 05:41:19;;;;;;;4.72;3.10;;;;;;;;;;5023580;28;20508;-73
2022/07/13 05:43:44;;;;;;;5.03;3.33;;;;;;;;;;5017019;28;20036;-74
2022/07/13 05:46:10;;;;;;;5.03;2.97;;;;;;;;;;5026398;28;20029;-74
2022/07/13 05:48:36;;;;;;;5.55;3.17;;;;;;;;;;5031712;28;20504;-74
2022/07/13 05:51:01;;;;;;;4.82;3.03;;;;;;;;;;5027631;28;20030;-73
2022/07/13 05:53:26;;;;;;;4.70;3.10;;;;;;;;;;5026340;28;20062;-74
2022/07/13 05:55:52;;;;;;;3.53;2.63;;;;;;;;;;5022584;28;20030;-74
2022/07/13 05:58:17;;;;;;;4.82;2.90;;;;;;;;;;5026316;28;20021;-73
2022/07/13 06:00:43;;;;;;;4.75;2.80;;;;;;;;;;5025570;28;20033;-74
2022/07/13 06:03:08;;;;;;;6.00;2.92;;;;;;;;;;5023273;28;20041;-73
2022/07/13 06:05:33;;;;;;;4.90;3.20;;;;;;;;;;5030475;28;20381;-73
2022/07/13 06:07:59;;;;;;;10.52;3.33;;;;;;;;;;5033750;28;20033;-73
2022/07/13 06:10:24;;;;;;;5.03;3.20;;;;;;;;;;5024612;28;20036;-73
2022/07/13 06:12:50;;;;;;;5.00;3.00;;;;;;;;;;5022582;28;20064;-73
2022/07/13 06:15:15;;;;;;;5.40;3.10;;;;;;;;;;5020399;28;20052;-74
2022/07/13 06:17:41;;;;;;;5.60;3.25;;;;;;;;;;5028226;28;20040;-74
2022/07/13 06:20:07;;;;;;;4.80;3.40;;;;;;;;;;5026227;28;20032;-73
2022/07/13 06:22:32;;;;;;;5.00;3.17;;;;;;;;;;5023496;28;20069;-74
2022/07/13 06:24:58;;;;;;;9.05;3.30;;;;;;;;;;5021635;28;20470;-72
2022/07/13 06:27:23;;;;;;;5.38;3.10;;;;;;;;;;5025882;28;20048;-72
2022/07/13 06:29:48;;;;;;;4.68;3.08;;;;;;;;;;5028889;28;20079;-73
2022/07/13 06:32:14;;;;;;;5.25;3.70;;;;;;;;;;5024189;28;20049;-74
2022/07/13 06:34:39;;;;;;;6.03;3.58;;;;;;;;;;5018825;28;20030;-75
2022/07/13 06:37:06;;;;;;;7.68;4.10;;;;;;;;;;5028301;28;20116;-72
2022/07/13 06:39:32;;;;;;;7.07;3.95;;;;;;;;;;5023383;28;20124;-73
2022/07/13 06:41:57;;;;;;;6.53;3.85;;;;;;;;;;5027728;28;20112;-74
2022/07/13 06:44:22;;;;;;;6.00;4.00;;;;;;;;;;5025431;28;20109;-73
2022/07/13 06:46:49;;;;;;;6.07;3.90;;;;;;;;;;5023945;28;20114;-72
2022/07/13 06:49:15;;;;;;;4.75;3.33;;;;;;;;;;5025393;28;20056;-73
2022/07/13 06:51:40;;;;;;;8.15;3.92;;;;;;;;;;5028809;28;20013;-74
2022/07/13 06:54:06;;;;;;;5.47;3.70;;;;;;;;;;5025378;28;20113;-74
2022/07/13 06:56:31;;;;;;;5.18;3.75;;;;;;;;;;5027362;28;20470;-76
2022/07/13 06:58:56;;;;;;;6.32;3.70;;;;;;;;;;5027799;28;20026;-73
2022/07/13 07:01:22;;;;;;;11.77;3.83;;;;;;;;;;5027715;28;20022;-73
2022/07/13 07:03:47;;;;;;;6.05;3.92;;;;;;;;;;5029835;28;20061;-74
2022/07/13 07:06:13;;;;;;;6.68;3.90;;;;;;;;;;5026238;28;20116;-72
2022/07/13 07:08:38;;;;;;;8.00;3.78;;;;;;;;;;5027203;28;20083;-72
2022/07/13 07:11:04;;;;;;;5.82;3.67;;;;;;;;;;5025016;28;20124;-74
2022/07/13 07:13:29;;;;;;;6.18;3.70;;;;;;;;;;5021483;28;20108;-73
2022/07/13 07:15:54;;;;;;;6.38;3.90;;;;;;;;;;5025879;28;20021;-74
2022/07/13 07:18:23;;;;;;;5.25;3.70;;;;;;;;;;5017059;28;20088;-72
2022/07/13 07:20:49;;;;;;;5.25;3.70;;;;;;;;;;5027583;28;20079;-72
2022/07/13 07:23:16;;;;;;;6.05;3.90;;;;;;;;;;5028831;28;20037;-74
2022/07/13 07:25:41;;;;;;;5.30;3.58;;;;;;;;;;5021281;28;20056;-74
2022/07/13 07:28:07;;;;;;;6.70;3.65;;;;;;;;;;5022041;28;20076;-76
2022/07/13 07:30:33;;;;;;;5.93;3.70;;;;;;;;;;5025104;28;20068;-75
2022/07/13 07:32:58;;;;;;;5.10;3.58;;;;;;;;;;4992004;28;1113641;-73
2022/07/13 07:35:24;;;;;;;7.03;3.90;;;;;;;;;;5022781;28;20041;-73
2022/07/13 07:37:49;;;;;;;6.57;3.80;;;;;;;;;;5019992;28;20378;-74
2022/07/13 07:40:14;;;;;;;8.82;4.50;;;;;;;;;;5019449;28;20418;-75
2022/07/13 07:42:40;;;;;;;5.70;3.90;;;;;;;;;;5024141;28;20031;-73
2022/07/13 07:45:08;;;;;;;6.60;4.30;;;;;;;;;;5022270;28;20044;-74
2022/07/13 07:47:33;;;;;;;6.43;4.35;;;;;;;;;;5025541;28;20026;-74
2022/07/13 07:49:58;;;;;;;7.22;4.43;;;;;;;;;;5018611;28;20030;-73
2022/07/13 07:52:24;;;;;;;6.65;3.63;;;;;;;;;;5021927;28;20030;-72
2022/07/13 07:54:49;;;;;;;5.32;3.72;;;;;;;;;;5018050;28;20029;-73
2022/07/13 07:57:15;;;;;;;7.22;4.22;;;;;;;;;;5016171;28;20029;-74
2022/07/13 07:59:41;;;;;;;6.03;4.10;;;;;;;;;;5018911;28;20068;-72
2022/07/13 08:02:08;;;;;;;6.00;4.28;;;;;;;;;;5023972;28;20033;-74
2022/07/13 08:04:33;;;;;;;6.80;4.20;;;;;;;;;;5018469;28;20322;-76
2022/07/13 08:07:00;;;;;;;7.00;4.65;;;;;;;;;;5022686;28;20041;-74
2022/07/13 08:09:25;;;;;;;4.88;3.90;;;;;;;;;;5023938;28;20037;-76
2022/07/13 08:11:51;;;;;;;5.25;3.92;;;;;;;;;;5015135;28;22594;-74
2022/07/13 08:14:16;;;;;;;6.18;4.43;;;;;;;;;;5021747;28;20025;-75
2022/07/13 08:16:41;;;;;;;5.72;4.05;;;;;;;;;;5019434;28;20053;-73
2022/07/13 08:19:07;;;;;;;5.32;4.20;;;;;;;;;;5018085;28;20025;-75
2022/07/13 08:21:34;;;;;;;8.20;4.13;;;;;;;;;;5013711;28;20056;-75
2022/07/13 08:23:59;;;;;;;5.60;3.97;;;;;;;;;;5012541;28;20030;-73
2022/07/13 08:26:27;;;;;;;5.93;4.00;;;;;;;;;;5005156;28;21721;-74
2022/07/13 08:28:54;;;;;;;7.43;4.03;;;;;;;;;;5006365;28;20485;-73
2022/07/13 08:31:21;;;;;;;5.90;3.83;;;;;;;;;;5010956;28;20175;-74
2022/07/13 08:39:15;;;;;;;7.93;4.13;;;;;;;;;;5022146;28;20041;-74
2022/07/13 08:41:40;;;;;;;6.68;4.25;;;;;;;;;;5020201;28;20026;-74
2022/07/13 08:44:06;;;;;;;5.88;4.18;;;;;;;;;;5009889;28;20030;-72
2022/07/13 08:46:32;;;;;;;7.55;4.05;;;;;;;;;;5024462;28;20049;-75
2022/07/13 08:48:58;;;;;;;6.55;4.28;;;;;;;;;;5025495;28;20448;-75
2022/07/13 08:51:25;;;;;;;6.50;4.13;;;;;;;;;;5019499;28;20034;-73
2022/07/13 08:53:51;;;;;;;7.32;4.80;;;;;;;;;;5016966;28;20116;-75
2022/07/13 08:56:17;;;;;;;8.45;5.15;;;;;;;;;;5020746;28;20036;-76
2022/07/13 08:58:42;;;;;;;6.57;4.63;;;;;;;;;;5022546;28;20026;-75
2022/07/13 09:01:09;;;;;;;7.47;4.65;;;;;;;;;;5021205;28;20608;-72
2022/07/13 09:03:35;;;;;;;7.22;4.82;;;;;;;;;;5013507;28;20812;-75
2022/07/13 09:06:01;;;;;;;7.43;4.70;;;;;;;;;;5018405;28;20083;-74
2022/07/13 09:08:26;;;;;;;6.95;4.07;;;;;;;;;;5020331;28;20033;-73
2022/07/13 09:10:57;;;;;;;7.05;4.75;;;;;;;;;;5017099;28;20028;-73
2022/07/13 09:13:39;;;;;;;6.25;3.88;;;;;;;;;;5014179;28;20033;-73
2022/07/13 09:16:14;;;;;;;7.10;4.03;;;;;;;;;;5010594;28;20038;-73
2022/07/13 09:18:41;;;;;;;6.75;4.07;;;;;;;;;;5015465;28;20040;-73
2022/07/13 09:21:07;;;;;;;6.88;4.20;;;;;;;;;;5020132;28;20029;-73
2022/07/13 09:23:32;;;;;;;5.57;3.90;;;;;;;;;;5016273;28;20568;-73
2022/07/13 09:25:58;;;;;;;7.22;4.13;;;;;;;;;;5014455;28;20057;-74
2022/07/13 09:28:24;;;;;;;6.40;3.63;;;;;;;;;;5020065;28;20087;-73
2022/07/13 09:30:50;;;;;;;5.50;3.83;;;;;;;;;;5017068;28;20018;-73
2022/07/13 09:33:31;;;;;;;6.63;3.75;;;;;;;;;;5016962;28;20050;-74
2022/07/13 09:35:56;;;;;;;6.68;3.80;;;;;;;;;;5014569;28;20064;-72
2022/07/13 09:38:34;;;;;;;5.45;3.42;;;;;;;;;;5020534;28;20482;-73
2022/07/13 09:41:18;;;;;;;6.22;3.78;;;;;;;;;;5012940;28;20025;-73
2022/07/13 09:46:56;;;;;;;4.97;3.65;;;;;;;;;;5011043;28;20083;-74
2022/07/13 09:49:52;;;;;;;5.47;3.35;;;;;;;;;;5011956;28;20041;-74
2022/07/13 09:52:18;;;;;;;7.68;3.80;;;;;;;;;;5015621;28;20501;-72
2022/07/13 09:54:48;;;;;;;8.15;3.75;;;;;;;;;;5018645;28;20021;-74
2022/07/13 09:57:16;;;;;;;5.68;3.80;;;;;;;;;;5021726;28;20139;-73
2022/07/13 09:59:43;;;;;;;6.75;3.80;;;;;;;;;;5015991;28;20631;-73
2022/07/13 10:02:09;;;;;;;5.80;4.25;;;;;;;;;;5015819;28;20029;-72
2022/07/13 10:04:38;;;;;;;6.10;3.47;;;;;;;;;;5012331;28;20036;-75
2022/07/13 10:07:04;;;;;;;7.70;4.20;;;;;;;;;;5013968;28;20034;-73
2022/07/13 10:09:30;;;;;;;6.28;4.03;;;;;;;;;;5011018;28;20037;-74
2022/07/13 10:11:57;;;;;;;5.05;3.33;;;;;;;;;;5015512;28;21640;-74
2022/07/13 10:14:23;;;;;;;6.28;3.10;;;;;;;;;;5014197;28;20398;-74
2022/07/13 10:16:52;;;;;;;5.25;3.28;;;;;;;;;;5017538;28;20031;-74
2022/07/13 10:19:18;;;;;;;3.63;2.88;;;;;;;;;;5015835;28;20025;-72
2022/07/13 10:22:04;;;;;;;4.60;2.83;;;;;;;;;;5017398;28;20037;-75
2022/07/13 10:24:30;;;;;;;4.85;3.05;;;;;;;;;;5008028;28;20044;-74
2022/07/13 10:27:21;;;;;;;5.55;2.92;;;;;;;;;;5016157;28;20030;-72
2022/07/13 10:29:48;;;;;;;5.13;2.75;;;;;;;;;;5026474;28;20510;-74
2022/07/13 10:32:16;;;;;;;5.07;3.05;;;;;;;;;;5016585;28;20053;-74
2022/07/13 10:34:51;;;;;;;4.10;2.88;;;;;;;;;;5016343;28;20060;-74
2022/07/13 10:37:17;;;;;;;5.47;3.80;;;;;;;;;;5021257;28;20044;-73
2022/07/13 10:40:08;;;;;;;4.63;2.85;;;;;;;;;;5020419;28;20579;-72
2022/07/13 10:43:04;;;;;;;5.82;3.50;;;;;;;;;;5018733;28;20041;-72
2022/07/13 10:45:38;;;;;;;5.72;4.00;;;;;;;;;;5017853;28;20029;-75
2022/07/13 10:48:24;;;;;;;5.13;3.25;;;;;;;;;;5014477;28;20765;-75
2022/07/13 10:50:58;;;;;;;6.32;3.75;;;;;;;;;;5009483;28;20045;-72
2022/07/13 10:53:52;;;;;;;5.13;2.90;;;;;;;;;;5017246;28;20025;-75
2022/07/13 10:56:21;;;;;;;4.30;2.38;;;;;;;;;;5007664;28;20446;-73
2022/07/13 10:58:50;;;;;;;3.90;2.97;;;;;;;;;;5018451;28;20021;-74
2022/07/13 11:01:43;;;;;;;5.32;3.50;;;;;;;;;;5019704;28;20061;-75
2022/07/13 11:04:12;;;;;;;3.72;2.90;;;;;;;;;;5024008;28;20149;-74
2022/07/13 11:06:39;;;;;;;4.78;3.40;;;;;;;;;;5016155;28;20045;-75
2022/07/13 11:09:19;;;;;;;4.03;2.90;;;;;;;;;;5022698;28;20087;-74
2022/07/13 11:11:53;;;;;;;3.63;2.50;;;;;;;;;;5023613;28;20137;-73
2022/07/13 11:14:39;;;;;;;3.75;2.47;;;;;;;;;;5018746;28;20036;-73
2022/07/13 11:17:19;;;;;;;5.45;2.78;;;;;;;;;;5018323;28;20038;-73
2022/07/13 11:19:52;;;;;;;3.95;2.63;;;;;;;;;;5019097;28;20034;-74
2022/07/13 11:22:18;;;;;;;4.60;2.65;;;;;;;;;;5013816;28;20038;-74
2022/07/13 11:25:16;;;;;;;3.25;2.38;;;;;;;;;;5023841;28;20029;-73
2022/07/13 11:28:13;;;;;;;7.25;2.90;;;;;;;;;;5020089;28;20095;-74
2022/07/13 11:30:43;;;;;;;5.38;2.97;;;;;;;;;;5017534;28;20054;-74
2022/07/13 11:33:12;;;;;;;4.40;2.50;;;;;;;;;;5016802;28;20150;-73
2022/07/13 11:35:43;;;;;;;4.97;2.50;;;;;;;;;;5022415;28;20064;-75
2022/07/13 11:38:10;;;;;;;6.40;3.35;;;;;;;;;;5017637;28;20783;-75
2022/07/13 11:40:36;;;;;;;6.32;3.53;;;;;;;;;;5015791;28;20924;-75
2022/07/13 11:43:02;;;;;;;5.60;2.80;;;;;;;;;;5009365;28;20061;-73
2022/07/13 11:45:32;;;;;;;6.25;3.17;;;;;;;;;;5024824;28;20117;-72
2022/07/13 11:48:02;;;;;;;4.60;2.72;;;;;;;;;;5020917;28;20056;-73
2022/07/13 11:50:51;;;;;;;4.40;2.85;;;;;;;;;;5020475;28;20460;-73
2022/07/13 11:53:24;;;;;;;5.10;3.60;;;;;;;;;;5022958;28;20543;-74
2022/07/13 11:55:51;;;;;;;5.53;3.20;;;;;;;;;;5016623;28;20021;-73
2022/07/13 11:58:28;;;;;;;5.05;3.30;;;;;;;;;;5026805;28;20025;-73
2022/07/13 12:00:54;;;;;;;5.85;3.38;;;;;;;;;;5023308;28;20044;-73
2022/07/13 12:03:31;;;;;;;4.90;3.53;;;;;;;;;;5022172;28;20516;-73
2022/07/13 12:06:01;;;;;;;6.13;3.40;;;;;;;;;;5029332;28;20489;-73
2022/07/13 12:08:28;;;;;;;5.55;3.50;;;;;;;;;;5021459;28;20053;-73
2022/07/13 12:10:55;;;;;;;4.45;3.58;;;;;;;;;;5017683;28;20389;-73
2022/07/13 12:13:21;;;;;;;6.43;3.58;;;;;;;;;;5018952;28;20092;-73
2022/07/13 12:15:46;;;;;;;5.45;3.40;;;;;;;;;;5021658;28;20053;-72
2022/07/13 12:18:13;;;;;;;5.32;3.10;;;;;;;;;;5019321;28;20029;-72
2022/07/13 12:20:39;;;;;;;5.10;2.95;;;;;;;;;;5016586;28;20064;-72
2022/07/13 12:23:07;;;;;;;5.55;4.05;;;;;;;;;;5022464;28;20036;-73
2022/07/13 12:25:37;;;;;;;5.53;3.33;;;;;;;;;;5028369;28;20073;-73
2022/07/13 12:28:05;;;;;;;4.93;3.88;;;;;;;;;;5026463;28;20036;-73
2022/07/13 12:30:33;;;;;;;5.43;3.20;;;;;;;;;;5024732;28;20029;-72
2022/07/13 12:33:04;;;;;;;5.75;3.92;;;;;;;;;;5026292;28;20041;-72
2022/07/13 12:35:30;;;;;;;7.78;3.72;;;;;;;;;;5031696;28;20025;-73
2022/07/13 12:38:01;;;;;;;6.88;3.90;;;;;;;;;;5022627;28;20497;-72
2022/07/13 12:40:44;;;;;;;5.88;3.75;;;;;;;;;;5024747;28;20029;-72
2022/07/13 12:43:22;;;;;;;6.82;3.42;;;;;;;;;;5028094;28;20026;-73
2022/07/13 12:45:48;;;;;;;7.28;3.42;;;;;;;;;;5025456;28;20025;-72
2022/07/13 12:48:15;;;;;;;6.38;3.15;;;;;;;;;;5017340;28;20112;-73
2022/07/13 12:50:40;;;;;;;5.03;3.00;;;;;;;;;;5023706;28;20418;-72
2022/07/13 12:53:06;;;;;;;5.82;3.00;;;;;;;;;;5019732;28;20072;-72
2022/07/13 12:55:49;;;;;;;3.30;2.40;;;;;;;;;;5026020;28;20017;-72
2022/07/13 12:58:15;;;;;;;3.47;2.22;;;;;;;;;;5025260;28;20068;-72
2022/07/13 13:00:41;;;;;;;6.32;2.72;;;;;;;;;;5023169;28;20497;-72
2022/07/13 13:03:06;;;;;;;3.88;2.15;;;;;;;;;;5018080;28;20053;-73
2022/07/13 13:05:31;;;;;;;3.67;2.10;;;;;;;;;;5022225;28;20068;-72
2022/07/13 13:07:57;;;;;;;3.15;1.95;;;;;;;;;;5021341;28;20039;-73
2022/07/13 13:10:22;;;;;;;3.22;2.00;;;;;;;;;;5022203;28;20025;-73
2022/07/13 13:12:48;;;;;;;2.83;1.83;;;;;;;;;;5024438;28;20079;-72
2022/07/13 13:15:15;;;;;;;3.08;1.80;;;;;;;;;;5022246;28;20428;-72
2022/07/13 13:17:41;;;;;;;3.30;2.05;;;;;;;;;;5017179;28;20536;-73
2022/07/13 13:20:06;;;;;;;4.70;1.80;;;;;;;;;;5013075;28;20040;-73
2022/07/13 13:22:32;;;;;;;3.78;1.90;;;;;;;;;;5023142;28;20025;-72
2022/07/13 13:24:57;;;;;;;4.07;2.13;;;;;;;;;;5017336;28;20030;-72
2022/07/13 13:27:22;;;;;;;3.95;1.70;;;;;;;;;;5008538;28;20085;-72
2022/07/13 13:32:32;;;;;;;3.72;2.00;;;;;;;;;;5008914;28;20057;-73
2022/07/13 13:34:58;;;;;;;4.35;2.08;;;;;;;;;;5009229;28;20033;-73
2022/07/13 13:37:23;;;;;;;4.25;2.20;;;;;;;;;;5011117;28;20414;-73
2022/07/13 13:39:48;;;;;;;4.78;2.20;;;;;;;;;;5008289;28;20029;-73
2022/07/13 13:42:14;;;;;;;4.97;2.00;;;;;;;;;;5010247;28;20037;-73
2022/07/13 13:44:39;;;;;;;2.92;2.10;;;;;;;;;;5007055;28;20029;-72
2022/07/13 13:47:04;;;;;;;3.30;2.05;;;;;;;;;;5009331;28;20087;-73
2022/07/13 13:49:30;;;;;;;3.60;2.25;;;;;;;;;;5010355;28;20588;-73
2022/07/13 13:51:55;;;;;;;3.08;2.15;;;;;;;;;;5003671;28;20103;-73
2022/07/13 13:54:21;;;;;;;3.63;2.30;;;;;;;;;;5006145;28;20048;-73
2022/07/13 13:56:46;;;;;;;3.75;2.10;;;;;;;;;;5010307;28;20103;-73
2022/07/13 13:59:11;;;;;;;3.55;2.20;;;;;;;;;;5009950;28;21026;-73
2022/07/13 14:01:37;;;;;;;2.95;2.13;;;;;;;;;;5010781;28;20033;-73
2022/07/13 14:04:02;;;;;;;3.38;2.10;;;;;;;;;;5013318;28;20083;-73
2022/07/13 14:06:28;;;;;;;3.13;2.28;;;;;;;;;;5005225;28;20471;-73
2022/07/13 14:08:54;;;;;;;5.13;2.47;;;;;;;;;;5009349;28;20040;-73
2022/07/13 14:11:20;;;;;;;3.00;2.20;;;;;;;;;;5004432;28;20025;-72
2022/07/13 14:13:46;;;;;;;3.70;2.42;;;;;;;;;;5013142;28;20029;-72
2022/07/13 14:16:12;;;;;;;2.88;2.28;;;;;;;;;;5012536;28;20772;-72
2022/07/13 14:18:38;;;;;;;3.55;2.47;;;;;;;;;;5012559;28;20046;-73
2022/07/13 14:21:04;;;;;;;4.47;2.70;;;;;;;;;;5005563;28;20025;-73
2022/07/13 14:23:30;;;;;;;2.97;2.30;;;;;;;;;;5013447;28;20152;-72
2022/07/13 14:25:55;;;;;;;5.32;2.92;;;;;;;;;;5000039;28;20557;-73
2022/07/13 14:28:21;;;;;;;6.38;3.13;;;;;;;;;;5011111;28;20033;-73
2022/07/13 14:30:46;;;;;;;4.95;2.60;;;;;;;;;;5019066;28;20021;-73
2022/07/13 14:33:14;;;;;;;3.40;2.08;;;;;;;;;;5006814;28;20104;-73
2022/07/13 14:35:46;;;;;;;5.50;2.13;;;;;;;;;;5008754;28;20044;-73
2022/07/13 14:38:12;;;;;;;3.63;2.10;;;;;;;;;;5009482;28;20108;-74
2022/07/13 14:40:40;;;;;;;3.83;2.00;;;;;;;;;;5013693;28;20036;-72
2022/07/13 14:43:06;;;;;;;2.13;1.50;;;;;;;;;;5013833;28;20109;-73
2022/07/13 14:45:32;;;;;;;2.28;1.70;;;;;;;;;;5013376;28;20032;-73
2022/07/13 14:47:58;;;;;;;3.20;1.77;;;;;;;;;;5004437;28;20496;-73
2022/07/13 14:50:23;;;;;;;4.50;2.10;;;;;;;;;;5010313;28;20683;-73
2022/07/13 14:52:48;;;;;;;3.05;2.15;;;;;;;;;;5006639;28;20029;-73